Katmai National Park, AK

3:46 AM AKDT on July 06, 2015 (GMT -0800)
King Salmon | | Change Station
CLOSE
Current Station
Airport
Location: King Salmon,
Elevation: 46 ft
Nearby Weather Stations

Elev 46 ft 58.68 °N, 156.66 °W | Updated 52 minutes ago

Scattered Clouds
Scattered Clouds
58 °F
Feels Like 58 °F
N
7
Wind Variable Wind from East

Today
High -- | Low -- °F
--% Chance of Precip.
Yesterday
High -- | Low -- °F
Precip. -- in
5:27 AM 11:34 PM
Waning Gibbous, 76% visible
Pressure 29.80 in
Visibility 10.0 miles
Clouds Few 2600 ft
Scattered Clouds 11000 ft
Dew Point 55 °F
Humidity 90%
Rainfall 0.01 in
Snow Depth Not available.
UV 0 out of 12
Pollen Not available.
Air Quality Not available.
Flu Activity Not available.
METAR PAKN 061054Z 09006KT 10SM FEW026 SCT110 14/13 A2980 RMK AO2 RAE44 SLP091 P0001 T01440128 $

More Conditions Fewer Conditions

Pressure 29.80 in
Visibility 10.0 miles
Clouds Few 2600 ft
Scattered Clouds 11000 ft
Dew Point 55 °F
Humidity 90%
Rainfall 0.01 in
Snow Depth Not available.
UV 0 out of 12
Pollen Not available.
Air Quality Not available.
Flu Activity Not available.
METAR PAKN 061054Z 09006KT 10SM FEW026 SCT110 14/13 A2980 RMK AO2 RAE44 SLP091 P0001 T01440128 $

More Conditions Fewer Conditions

10-Day Weather Forecast

×

Almanac

Astronomy

Jul. 06, 2015 Rise Set
Actual Time
Civil Twilight
Nautical Twilight
Astronomical Twilight
Moon
Length of Visible Light
Length of Day
Tomorrow will be .
, % of the Moon is Illuminated

Today's Extremes

State Highs State Lows

Community

WunderPhotos

Upload Photos

1,835,538 photos uploaded!

WunderBlogs® & News

Nearby

Air Quality

  Air Quality AQ Index Pollutant
Not available.

Snow Depth

Station Depth Elevation

Earthquake Activity

City Distance Mag. Time & Date
Minimum magnitude displayed is 2.5.

Coastal Water Temperatures

Place Temperature

Stations

Nearby Weather Stations

Station Location Temp. Windchill Dew Point Humidity Wind Precip. Elev Updated Type